Flight Track Log - Related Links

Times and Time Zones

All times are in EDT time to prevent confusion due to time zone crossing. See the SWA17 flight status page for this flight to view local times or setup timezone preferences in your user account.

Time Position Orientation Groundspeed Altitude Reporting Facility
EDT Latitude Longitude Course Direction KTS MPH feet Rate Location/Type
Sat 09:09:18 AM 41.7500 -87.7667 103° East 193 222 2,500  Level Chicago TRACON
Sat 09:10:12 AM 41.7367 -87.6889 103° East 217 250 4,700 2,948 Climbing Chicago Center
Sat 09:11:14 AM 41.7400 -87.5914 87° East 266 306 8,200 4,000 Climbing Chicago Center
Sat 09:12:15 AM 41.7461 -87.4750 86° East 289 333 12,900 4,000 Climbing Chicago Center
Sat 09:13:17 AM 41.7511 -87.3497 87° East 338 389 16,400 3,268 Climbing Chicago Center
Sat 09:14:18 AM 41.7564 -87.2167 87° East 364 419 19,600 3,122 Climbing Chicago Center
Sat 09:15:20 AM 41.7608 -87.0717 88° East 387 445 22,800 2,878 Climbing Chicago Center
Sat 09:16:21 AM 41.7631 -86.9194 89° East 404 465 25,500 2,488 Climbing Chicago Center
Sat 09:17:23 AM 41.7650 -86.7600 89° East 425 489 27,900 2,439 Climbing Chicago Center
Sat 09:18:24 AM 41.7664 -86.5728 89° East 451 519 30,500 2,488 Climbing Chicago Center
Sat 09:19:26 AM 41.7672 -86.4042 90° East 454 522 33,000 2,195 Climbing Chicago Center
Sat 09:20:27 AM 41.7631 -86.2350 92° East 454 522 35,000 976 Climbing Chicago Center
Sat 09:21:29 AM 41.7522 -86.0656 95° East 455 524 35,000 145 Level Chicago Center
Sat 09:22:31 AM 41.7417 -85.8964 95° East 455 524 35,300 780 Climbing Chicago Center
Sat 09:23:32 AM 41.7306 -85.7142 95° East 483 556 36,600 1,561 Climbing Chicago Center
Sat 09:24:34 AM 41.7194 -85.5308 95° East 487 560 38,500 1,756 Climbing Chicago Center
Sat 09:25:35 AM 41.7036 -85.3383 96° East 474 545 40,200 1,220 Climbing Chicago Center
Sat 09:26:37 AM 41.6942 -85.1678 94° East 482 555 41,000 387 Climbing Chicago Center
Sat 09:27:39 AM 41.6792 -84.9567 95° East 477 549 41,000  Level Chicago Center
Sat 09:28:24 AM 41.6717 -84.8531 96° East 474 545 41,000  Level Cleveland Center
Sat 09:29:26 AM 41.6614 -84.6775 94° East 474 545 41,000  Level Cleveland Center
Sat 09:30:28 AM 41.6528 -84.4672 93° East 474 545 41,000  Level Cleveland Center
Sat 09:31:30 AM 41.6442 -84.2922 94° East 473 544 41,000  Level Cleveland Center
Sat 09:32:31 AM 41.6367 -84.1178 93° East 473 544 41,000  Level Cleveland Center
Sat 09:33:33 AM 41.6275 -83.9250 94° East 473 544 41,000  Level Cleveland Center
Sat 09:34:35 AM 41.6189 -83.7494 94° East 474 545 41,000  Level Cleveland Center
Sat 09:35:37 AM 41.6106 -83.5742 94° East 476 548 41,000  Level Cleveland Center
Sat 09:36:38 AM 41.5964 -83.3994 96° East 477 549 41,000 -390 Level Cleveland Center
Sat 09:37:40 AM 41.5764 -83.2264 99° East 476 548 40,200 -871 Descending Cleveland Center
Sat 09:38:42 AM 41.5297 -83.0533 110° East 464 534 39,200 -976 Descending Cleveland Center
Sat 09:39:43 AM 41.4883 -82.8886 108° East 464 534 38,200 -927 Descending Cleveland Center
Sat 09:40:45 AM 41.4447 -82.7233 109° East 467 537 37,300 -1,210 Descending Cleveland Center
Sat 09:41:47 AM 41.4008 -82.5556 109° East 472 543 35,700 -1,220 Descending Cleveland Center
Sat 09:42:48 AM 41.3492 -82.3614 109° East 473 544 34,800 -1,317 Descending Cleveland Center
Sat 09:43:50 AM 41.3047 -82.1944 109° East 474 545 33,000 -871 Descending Cleveland Center
Sat 09:44:52 AM 41.2628 -82.0372 109° East 476 548 33,000  Level Cleveland Center
Sat 09:45:53 AM 41.2178 -81.8719 110° East 478 550 33,000 -634 Level Cleveland Center
Sat 09:46:55 AM 41.1736 -81.7058 109° East 478 550 31,700 -1,452 Descending Cleveland Center
Sat 09:47:57 AM 41.1256 -81.5347 110° East 477 549 30,000 -1,512 Descending Cleveland Center
Sat 09:48:58 AM 41.0717 -81.3419 110° East 476 548 28,600 -2,049 Descending Cleveland Center
Sat 09:50:00 AM 41.0275 -81.1814 110° East 466 536 25,800 -2,758 Descending Cleveland Center
Sat 09:51:02 AM 40.9842 -81.0317 111° Southeast 447 514 22,900 -2,806 Descending Cleveland Center
Sat 09:52:04 AM 40.9428 -80.8828 110° East 437 503 20,000 -2,537 Descending Cleveland Center
Sat 09:53:05 AM 40.9031 -80.7403 110° East 419 482 17,700 -2,537 Descending Cleveland Center
Sat 09:54:07 AM 40.8492 -80.6114 119° Southeast 391 450 14,800 -2,661 Descending Cleveland Center
Sat 09:55:09 AM 40.7728 -80.5203 138° Southeast 371 427 12,200 -2,195 Descending Cleveland Center
Sat 09:56:10 AM 40.6978 -80.4350 139° Southeast 356 410 10,300 -1,561 Descending Cleveland Center
Sat 09:57:12 AM 40.6300 -80.3667 143° Southeast 307 353 9,000 -1,355 Descending Cleveland Center
Sat 09:58:14 AM 40.6106 -80.2664 104° East 292 336 7,500 -1,610 Descending Cleveland Center
Sat 09:59:15 AM 40.5956 -80.1417 99° East 290 334 5,700 -1,561 Descending Cleveland Center
Sat 10:00:17 AM 40.5747 -80.0486 106° East 287 330 4,300 -823 Descending Cleveland Center
Sat 10:01:19 AM 40.5292 -79.9747 129° Southeast 262 302 4,000 -146 Descending Cleveland Center
Sat 10:02:20 AM 40.4861 -80.0139 215° Southwest 232 267 4,000 -488 Level Cleveland Center
Sat 10:03:22 AM 40.4828 -80.0800 266° West 201 231 3,000 -871 Descending Cleveland Center
Sat 10:04:24 AM 40.4839 -80.1275 272° West 145 167 2,200 -683 Descending Cleveland Center
Sat 10:05:25 AM 40.4847 -80.1786 271° West 126 145 1,600 -590 Descending Cleveland Center

Login

Don't have an account? Register now (free) for customized features, flight alerts, and more!